Terminal Aerodrome Forecast
Issued by NWS Tuscon, AZ

Home | Current Version | Previous Version | Text Only | Print | Product List | Glossary On
Versions: 1 2 3 4 5 6 7 8 9 10 11 12 13 14 15
000
FTUS45 KTWC 171700
TAFTUS
TAF
KTUS 171740Z 1718/1818 08005KT P6SM VCSH SCT040 BKN080
     FM172200 26010KT P6SM -SHRA BKN035 OVC060
     FM180300 19005KT P6SM VCSH BKN050 BKN100
     FM181000 14007KT P6SM SCT070 BKN100=

USA.gov is the U.S. government's official web portal to all federal, state and local government web resources and services.